sensor_id;sensor_type;location;lat;lon;timestamp;P1;durP1;ratioP1;P2;durP2;ratioP2
39018;SDS011;24786;51.984;5.872;2023-03-26T00:00:52;12.45;;;3.33;;
39018;SDS011;24786;51.984;5.872;2023-03-26T00:03:19;8.48;;;2.30;;
39018;SDS011;24786;51.984;5.872;2023-03-26T00:05:46;9.25;;;2.85;;
39018;SDS011;24786;51.984;5.872;2023-03-26T00:08:12;10.60;;;3.03;;
39018;SDS011;24786;51.984;5.872;2023-03-26T00:10:39;11.60;;;2.85;;
39018;SDS011;24786;51.984;5.872;2023-03-26T00:13:06;11.88;;;3.38;;
39018;SDS011;24786;51.984;5.872;2023-03-26T00:15:32;14.52;;;3.63;;
39018;SDS011;24786;51.984;5.872;2023-03-26T00:17:59;12.25;;;3.38;;
39018;SDS011;24786;51.984;5.872;2023-03-26T00:20:26;14.55;;;3.42;;
39018;SDS011;24786;51.984;5.872;2023-03-26T00:22:53;10.25;;;3.25;;
39018;SDS011;24786;51.984;5.872;2023-03-26T00:25:19;18.60;;;3.28;;
39018;SDS011;24786;51.984;5.872;2023-03-26T00:27:45;18.77;;;3.67;;
39018;SDS011;24786;51.984;5.872;2023-03-26T00:30:12;16.88;;;4.30;;
39018;SDS011;24786;51.984;5.872;2023-03-26T00:32:38;24.48;;;4.10;;
39018;SDS011;24786;51.984;5.872;2023-03-26T00:35:03;17.63;;;4.55;;
39018;SDS011;24786;51.984;5.872;2023-03-26T00:37:29;25.77;;;5.15;;
39018;SDS011;24786;51.984;5.872;2023-03-26T00:39:55;20.83;;;4.80;;
39018;SDS011;24786;51.984;5.872;2023-03-26T00:42:32;21.80;;;4.75;;
39018;SDS011;24786;51.984;5.872;2023-03-26T00:44:58;22.45;;;5.45;;
39018;SDS011;24786;51.984;5.872;2023-03-26T00:47:24;23.92;;;4.60;;
39018;SDS011;24786;51.984;5.872;2023-03-26T00:49:51;17.88;;;4.60;;
39018;SDS011;24786;51.984;5.872;2023-03-26T00:52:17;17.27;;;5.78;;
39018;SDS011;24786;51.984;5.872;2023-03-26T00:54:46;15.50;;;5.32;;
39018;SDS011;24786;51.984;5.872;2023-03-26T00:57:15;17.95;;;5.32;;
39018;SDS011;24786;51.984;5.872;2023-03-26T00:59:41;21.10;;;4.57;;
39018;SDS011;24786;51.984;5.872;2023-03-26T01:02:07;25.42;;;5.68;;
39018;SDS011;24786;51.984;5.872;2023-03-26T01:04:36;27.73;;;5.60;;
39018;SDS011;24786;51.984;5.872;2023-03-26T01:07:04;24.55;;;5.82;;
39018;SDS011;24786;51.984;5.872;2023-03-26T01:09:35;24.58;;;5.57;;
39018;SDS011;24786;51.984;5.872;2023-03-26T01:12:08;25.38;;;6.18;;
39018;SDS011;24786;51.984;5.872;2023-03-26T01:14:37;25.45;;;5.97;;
39018;SDS011;24786;51.984;5.872;2023-03-26T01:17:04;32.83;;;6.43;;
39018;SDS011;24786;51.984;5.872;2023-03-26T01:22:02;31.35;;;6.95;;
39018;SDS011;24786;51.984;5.872;2023-03-26T01:24:35;21.50;;;6.18;;
39018;SDS011;24786;51.984;5.872;2023-03-26T01:27:03;34.53;;;8.35;;
39018;SDS011;24786;51.984;5.872;2023-03-26T01:29:53;29.70;;;6.43;;
39018;SDS011;24786;51.984;5.872;2023-03-26T01:35:13;31.00;;;6.47;;
39018;SDS011;24786;51.984;5.872;2023-03-26T01:40:35;30.92;;;6.63;;
39018;SDS011;24786;51.984;5.872;2023-03-26T01:45:51;28.83;;;7.07;;
39018;SDS011;24786;51.984;5.872;2023-03-26T01:48:17;26.23;;;6.28;;
39018;SDS011;24786;51.984;5.872;2023-03-26T01:50:43;31.75;;;7.40;;
39018;SDS011;24786;51.984;5.872;2023-03-26T01:53:09;31.20;;;6.80;;
39018;SDS011;24786;51.984;5.872;2023-03-26T01:58:46;31.63;;;7.10;;
39018;SDS011;24786;51.984;5.872;2023-03-26T02:04:13;30.75;;;6.80;;
39018;SDS011;24786;51.984;5.872;2023-03-26T02:06:50;23.33;;;5.75;;
39018;SDS011;24786;51.984;5.872;2023-03-26T02:09:26;28.50;;;6.47;;
39018;SDS011;24786;51.984;5.872;2023-03-26T02:11:55;23.55;;;6.57;;
39018;SDS011;24786;51.984;5.872;2023-03-26T02:14:21;35.55;;;7.50;;
39018;SDS011;24786;51.984;5.872;2023-03-26T02:16:47;36.92;;;7.18;;
39018;SDS011;24786;51.984;5.872;2023-03-26T02:19:13;38.53;;;8.75;;
39018;SDS011;24786;51.984;5.872;2023-03-26T02:21:45;27.30;;;6.88;;
39018;SDS011;24786;51.984;5.872;2023-03-26T02:24:15;40.65;;;7.80;;
39018;SDS011;24786;51.984;5.872;2023-03-26T02:26:42;32.92;;;8.65;;
39018;SDS011;24786;51.984;5.872;2023-03-26T02:29:08;26.67;;;6.88;;
39018;SDS011;24786;51.984;5.872;2023-03-26T02:31:35;29.85;;;8.82;;
39018;SDS011;24786;51.984;5.872;2023-03-26T02:34:00;28.05;;;7.15;;
39018;SDS011;24786;51.984;5.872;2023-03-26T02:36:26;31.05;;;7.85;;
39018;SDS011;24786;51.984;5.872;2023-03-26T02:38:52;32.40;;;7.47;;
39018;SDS011;24786;51.984;5.872;2023-03-26T02:41:19;32.67;;;7.13;;
39018;SDS011;24786;51.984;5.872;2023-03-26T02:43:45;24.92;;;6.70;;
39018;SDS011;24786;51.984;5.872;2023-03-26T02:46:10;31.65;;;7.72;;
39018;SDS011;24786;51.984;5.872;2023-03-26T02:48:36;30.50;;;7.05;;
39018;SDS011;24786;51.984;5.872;2023-03-26T02:51:02;31.35;;;6.22;;
39018;SDS011;24786;51.984;5.872;2023-03-26T02:53:28;40.97;;;7.97;;
39018;SDS011;24786;51.984;5.872;2023-03-26T02:55:54;34.35;;;8.27;;
39018;SDS011;24786;51.984;5.872;2023-03-26T02:58:21;21.33;;;6.97;;
39018;SDS011;24786;51.984;5.872;2023-03-26T03:00:49;27.23;;;6.85;;
39018;SDS011;24786;51.984;5.872;2023-03-26T03:03:19;40.88;;;8.57;;
39018;SDS011;24786;51.984;5.872;2023-03-26T03:08:21;31.65;;;8.43;;
39018;SDS011;24786;51.984;5.872;2023-03-26T03:10:54;31.83;;;7.75;;
39018;SDS011;24786;51.984;5.872;2023-03-26T03:13:21;28.80;;;9.63;;
39018;SDS011;24786;51.984;5.872;2023-03-26T03:15:47;44.35;;;9.65;;
39018;SDS011;24786;51.984;5.872;2023-03-26T03:18:12;47.90;;;10.00;;
39018;SDS011;24786;51.984;5.872;2023-03-26T03:20:38;51.35;;;10.35;;
39018;SDS011;24786;51.984;5.872;2023-03-26T03:23:03;42.90;;;8.90;;
39018;SDS011;24786;51.984;5.872;2023-03-26T03:25:29;30.80;;;9.13;;
39018;SDS011;24786;51.984;5.872;2023-03-26T03:27:56;44.10;;;9.00;;
39018;SDS011;24786;51.984;5.872;2023-03-26T03:30:23;35.78;;;9.30;;
39018;SDS011;24786;51.984;5.872;2023-03-26T03:32:48;39.50;;;10.35;;
39018;SDS011;24786;51.984;5.872;2023-03-26T03:35:14;32.83;;;9.63;;
39018;SDS011;24786;51.984;5.872;2023-03-26T03:37:40;31.35;;;9.10;;
39018;SDS011;24786;51.984;5.872;2023-03-26T03:40:06;41.13;;;11.10;;
39018;SDS011;24786;51.984;5.872;2023-03-26T03:42:32;31.95;;;9.55;;
39018;SDS011;24786;51.984;5.872;2023-03-26T03:44:58;31.33;;;9.68;;
39018;SDS011;24786;51.984;5.872;2023-03-26T03:47:23;29.00;;;9.10;;
39018;SDS011;24786;51.984;5.872;2023-03-26T03:49:49;33.53;;;9.20;;
39018;SDS011;24786;51.984;5.872;2023-03-26T03:52:15;42.47;;;10.55;;
39018;SDS011;24786;51.984;5.872;2023-03-26T03:54:42;40.40;;;10.15;;
39018;SDS011;24786;51.984;5.872;2023-03-26T03:57:07;33.30;;;9.55;;
39018;SDS011;24786;51.984;5.872;2023-03-26T03:59:33;40.63;;;8.93;;
39018;SDS011;24786;51.984;5.872;2023-03-26T04:01:58;35.60;;;9.45;;
39018;SDS011;24786;51.984;5.872;2023-03-26T04:04:24;42.05;;;7.97;;
39018;SDS011;24786;51.984;5.872;2023-03-26T04:06:50;28.00;;;7.55;;
39018;SDS011;24786;51.984;5.872;2023-03-26T04:09:16;36.53;;;8.32;;
39018;SDS011;24786;51.984;5.872;2023-03-26T04:11:42;28.98;;;7.03;;
39018;SDS011;24786;51.984;5.872;2023-03-26T04:14:07;31.45;;;7.50;;
39018;SDS011;24786;51.984;5.872;2023-03-26T04:16:34;34.33;;;7.78;;
39018;SDS011;24786;51.984;5.872;2023-03-26T04:18:59;36.50;;;8.98;;
39018;SDS011;24786;51.984;5.872;2023-03-26T04:21:27;28.83;;;6.15;;
39018;SDS011;24786;51.984;5.872;2023-03-26T04:23:54;27.42;;;7.60;;
39018;SDS011;24786;51.984;5.872;2023-03-26T04:26:20;27.30;;;6.00;;
39018;SDS011;24786;51.984;5.872;2023-03-26T04:28:47;32.08;;;6.85;;
39018;SDS011;24786;51.984;5.872;2023-03-26T04:31:19;34.90;;;6.35;;
39018;SDS011;24786;51.984;5.872;2023-03-26T04:33:53;30.05;;;8.02;;
39018;SDS011;24786;51.984;5.872;2023-03-26T04:36:27;25.77;;;6.90;;
39018;SDS011;24786;51.984;5.872;2023-03-26T04:38:54;42.70;;;6.72;;
39018;SDS011;24786;51.984;5.872;2023-03-26T04:41:22;31.98;;;7.68;;
39018;SDS011;24786;51.984;5.872;2023-03-26T04:43:50;24.85;;;5.63;;
39018;SDS011;24786;51.984;5.872;2023-03-26T04:46:16;29.38;;;6.43;;
39018;SDS011;24786;51.984;5.872;2023-03-26T04:48:45;24.93;;;5.30;;
39018;SDS011;24786;51.984;5.872;2023-03-26T04:51:14;27.98;;;7.32;;
39018;SDS011;24786;51.984;5.872;2023-03-26T04:53:56;25.13;;;6.32;;
39018;SDS011;24786;51.984;5.872;2023-03-26T04:59:18;28.27;;;6.57;;
39018;SDS011;24786;51.984;5.872;2023-03-26T05:01:50;25.60;;;5.20;;
39018;SDS011;24786;51.984;5.872;2023-03-26T05:04:16;30.50;;;6.03;;
39018;SDS011;24786;51.984;5.872;2023-03-26T05:06:42;21.90;;;5.43;;
39018;SDS011;24786;51.984;5.872;2023-03-26T05:09:08;25.30;;;5.97;;
39018;SDS011;24786;51.984;5.872;2023-03-26T05:11:34;27.85;;;6.78;;
39018;SDS011;24786;51.984;5.872;2023-03-26T05:14:00;27.73;;;6.53;;
39018;SDS011;24786;51.984;5.872;2023-03-26T05:16:26;28.08;;;5.53;;
39018;SDS011;24786;51.984;5.872;2023-03-26T05:18:52;20.23;;;5.30;;
39018;SDS011;24786;51.984;5.872;2023-03-26T05:21:18;21.00;;;5.20;;
39018;SDS011;24786;51.984;5.872;2023-03-26T05:23:44;24.40;;;5.15;;
39018;SDS011;24786;51.984;5.872;2023-03-26T05:26:10;27.23;;;5.38;;
39018;SDS011;24786;51.984;5.872;2023-03-26T05:28:36;19.40;;;4.93;;
39018;SDS011;24786;51.984;5.872;2023-03-26T05:31:01;28.85;;;6.20;;
39018;SDS011;24786;51.984;5.872;2023-03-26T05:33:27;26.67;;;7.43;;
39018;SDS011;24786;51.984;5.872;2023-03-26T05:35:59;19.17;;;4.97;;
39018;SDS011;24786;51.984;5.872;2023-03-26T05:38:31;36.47;;;7.95;;
39018;SDS011;24786;51.984;5.872;2023-03-26T05:40:57;24.33;;;5.90;;
39018;SDS011;24786;51.984;5.872;2023-03-26T05:43:24;24.77;;;5.95;;
39018;SDS011;24786;51.984;5.872;2023-03-26T05:45:49;22.52;;;5.88;;
39018;SDS011;24786;51.984;5.872;2023-03-26T05:48:15;21.85;;;5.43;;
39018;SDS011;24786;51.984;5.872;2023-03-26T05:50:40;23.30;;;5.35;;
39018;SDS011;24786;51.984;5.872;2023-03-26T05:53:06;24.33;;;6.57;;
39018;SDS011;24786;51.984;5.872;2023-03-26T05:55:31;21.88;;;5.00;;
39018;SDS011;24786;51.984;5.872;2023-03-26T05:57:57;29.25;;;6.25;;
39018;SDS011;24786;51.984;5.872;2023-03-26T06:00:23;24.25;;;5.72;;
39018;SDS011;24786;51.984;5.872;2023-03-26T06:02:48;21.05;;;5.45;;
39018;SDS011;24786;51.984;5.872;2023-03-26T06:05:15;29.67;;;5.78;;
39018;SDS011;24786;51.984;5.872;2023-03-26T06:07:41;25.85;;;6.07;;
39018;SDS011;24786;51.984;5.872;2023-03-26T06:10:07;28.42;;;6.35;;
39018;SDS011;24786;51.984;5.872;2023-03-26T06:12:33;31.23;;;6.43;;
39018;SDS011;24786;51.984;5.872;2023-03-26T06:14:59;25.30;;;6.78;;
39018;SDS011;24786;51.984;5.872;2023-03-26T06:17:24;23.58;;;5.65;;
39018;SDS011;24786;51.984;5.872;2023-03-26T06:19:50;34.40;;;6.38;;
39018;SDS011;24786;51.984;5.872;2023-03-26T06:22:15;28.95;;;7.95;;
39018;SDS011;24786;51.984;5.872;2023-03-26T06:24:41;22.35;;;6.10;;
39018;SDS011;24786;51.984;5.872;2023-03-26T06:27:06;30.70;;;6.68;;
39018;SDS011;24786;51.984;5.872;2023-03-26T06:29:32;23.67;;;5.63;;
39018;SDS011;24786;51.984;5.872;2023-03-26T06:31:57;34.05;;;8.02;;
39018;SDS011;24786;51.984;5.872;2023-03-26T06:34:23;27.20;;;7.43;;
39018;SDS011;24786;51.984;5.872;2023-03-26T06:36:48;25.58;;;6.53;;
39018;SDS011;24786;51.984;5.872;2023-03-26T06:39:16;23.40;;;6.50;;
39018;SDS011;24786;51.984;5.872;2023-03-26T06:41:43;30.63;;;7.20;;
39018;SDS011;24786;51.984;5.872;2023-03-26T06:44:09;28.17;;;6.93;;
39018;SDS011;24786;51.984;5.872;2023-03-26T06:46:35;26.42;;;6.10;;
39018;SDS011;24786;51.984;5.872;2023-03-26T06:49:01;29.98;;;7.68;;
39018;SDS011;24786;51.984;5.872;2023-03-26T06:51:27;25.00;;;7.07;;
39018;SDS011;24786;51.984;5.872;2023-03-26T06:53:52;26.63;;;6.80;;
39018;SDS011;24786;51.984;5.872;2023-03-26T06:56:18;27.23;;;6.65;;
39018;SDS011;24786;51.984;5.872;2023-03-26T06:58:43;31.00;;;6.97;;
39018;SDS011;24786;51.984;5.872;2023-03-26T07:01:10;27.55;;;6.25;;
39018;SDS011;24786;51.984;5.872;2023-03-26T07:03:36;35.13;;;7.32;;
39018;SDS011;24786;51.984;5.872;2023-03-26T07:06:01;28.02;;;6.70;;
39018;SDS011;24786;51.984;5.872;2023-03-26T07:08:27;20.67;;;6.57;;
39018;SDS011;24786;51.984;5.872;2023-03-26T07:10:54;26.17;;;6.95;;
39018;SDS011;24786;51.984;5.872;2023-03-26T07:13:20;25.55;;;7.00;;
39018;SDS011;24786;51.984;5.872;2023-03-26T07:15:46;31.35;;;8.05;;
39018;SDS011;24786;51.984;5.872;2023-03-26T07:18:12;24.27;;;7.32;;
39018;SDS011;24786;51.984;5.872;2023-03-26T07:20:38;27.98;;;7.63;;
39018;SDS011;24786;51.984;5.872;2023-03-26T07:23:04;23.85;;;7.28;;
39018;SDS011;24786;51.984;5.872;2023-03-26T07:25:30;28.77;;;6.90;;
39018;SDS011;24786;51.984;5.872;2023-03-26T07:28:05;30.88;;;7.78;;
39018;SDS011;24786;51.984;5.872;2023-03-26T07:30:41;23.65;;;7.07;;
39018;SDS011;24786;51.984;5.872;2023-03-26T07:33:30;29.52;;;7.40;;
39018;SDS011;24786;51.984;5.872;2023-03-26T07:36:19;26.88;;;7.57;;
39018;SDS011;24786;51.984;5.872;2023-03-26T07:38:58;28.17;;;7.38;;
39018;SDS011;24786;51.984;5.872;2023-03-26T07:46:45;27.20;;;7.97;;
39018;SDS011;24786;51.984;5.872;2023-03-26T07:49:12;24.20;;;7.25;;
39018;SDS011;24786;51.984;5.872;2023-03-26T07:51:38;23.20;;;7.35;;
39018;SDS011;24786;51.984;5.872;2023-03-26T07:54:04;23.27;;;6.30;;
39018;SDS011;24786;51.984;5.872;2023-03-26T07:56:36;25.75;;;6.95;;
39018;SDS011;24786;51.984;5.872;2023-03-26T08:05:23;27.15;;;6.00;;
39018;SDS011;24786;51.984;5.872;2023-03-26T08:18:23;26.75;;;6.20;;
39018;SDS011;24786;51.984;5.872;2023-03-26T08:21:04;26.92;;;7.28;;
39018;SDS011;24786;51.984;5.872;2023-03-26T08:23:39;33.53;;;8.02;;
39018;SDS011;24786;51.984;5.872;2023-03-26T08:29:21;19.83;;;6.40;;
39018;SDS011;24786;51.984;5.872;2023-03-26T08:32:05;26.02;;;6.90;;
39018;SDS011;24786;51.984;5.872;2023-03-26T08:34:37;24.92;;;6.82;;
39018;SDS011;24786;51.984;5.872;2023-03-26T08:37:03;28.00;;;6.20;;
39018;SDS011;24786;51.984;5.872;2023-03-26T08:39:28;19.35;;;5.85;;
39018;SDS011;24786;51.984;5.872;2023-03-26T09:12:45;18.67;;;8.13;;
39018;SDS011;24786;51.984;5.872;2023-03-26T09:18:11;22.90;;;9.38;;
39018;SDS011;24786;51.984;5.872;2023-03-26T09:35:49;18.45;;;7.35;;
39018;SDS011;24786;51.984;5.872;2023-03-26T09:47:05;21.67;;;7.85;;
39018;SDS011;24786;51.984;5.872;2023-03-26T09:52:46;21.77;;;7.93;;
39018;SDS011;24786;51.984;5.872;2023-03-26T09:58:53;17.15;;;7.05;;
39018;SDS011;24786;51.984;5.872;2023-03-26T10:12:29;16.80;;;7.57;;
39018;SDS011;24786;51.984;5.872;2023-03-26T10:20:52;16.88;;;7.30;;
39018;SDS011;24786;51.984;5.872;2023-03-26T10:23:35;18.40;;;7.88;;
39018;SDS011;24786;51.984;5.872;2023-03-26T10:29:00;15.88;;;7.35;;
39018;SDS011;24786;51.984;5.872;2023-03-26T10:34:48;15.48;;;6.45;;
39018;SDS011;24786;51.984;5.872;2023-03-26T10:37:48;18.70;;;6.95;;
39018;SDS011;24786;51.984;5.872;2023-03-26T10:51:20;15.73;;;5.15;;
39018;SDS011;24786;51.984;5.872;2023-03-26T10:56:34;14.75;;;4.72;;
39018;SDS011;24786;51.984;5.872;2023-03-26T10:59:13;12.65;;;5.22;;
39018;SDS011;24786;51.984;5.872;2023-03-26T11:01:42;14.85;;;4.28;;
39018;SDS011;24786;51.984;5.872;2023-03-26T11:04:39;9.32;;;4.13;;
39018;SDS011;24786;51.984;5.872;2023-03-26T11:07:32;10.95;;;4.35;;
39018;SDS011;24786;51.984;5.872;2023-03-26T11:10:17;11.18;;;3.53;;
39018;SDS011;24786;51.984;5.872;2023-03-26T11:15:43;9.02;;;3.63;;
39018;SDS011;24786;51.984;5.872;2023-03-26T11:21:17;11.50;;;4.35;;
39018;SDS011;24786;51.984;5.872;2023-03-26T11:32:09;14.73;;;8.13;;
39018;SDS011;24786;51.984;5.872;2023-03-26T11:34:39;17.38;;;7.80;;
39018;SDS011;24786;51.984;5.872;2023-03-26T11:37:10;14.90;;;8.60;;
39018;SDS011;24786;51.984;5.872;2023-03-26T11:39:46;17.40;;;7.78;;
39018;SDS011;24786;51.984;5.872;2023-03-26T11:42:15;20.65;;;10.63;;
39018;SDS011;24786;51.984;5.872;2023-03-26T11:44:53;18.50;;;10.40;;
39018;SDS011;24786;51.984;5.872;2023-03-26T11:47:44;16.90;;;10.35;;
39018;SDS011;24786;51.984;5.872;2023-03-26T11:50:17;22.98;;;10.25;;
39018;SDS011;24786;51.984;5.872;2023-03-26T11:52:52;27.15;;;11.10;;
39018;SDS011;24786;51.984;5.872;2023-03-26T11:55:27;24.40;;;9.70;;
39018;SDS011;24786;51.984;5.872;2023-03-26T11:57:54;19.60;;;10.20;;
39018;SDS011;24786;51.984;5.872;2023-03-26T12:00:24;22.60;;;9.93;;
39018;SDS011;24786;51.984;5.872;2023-03-26T12:02:54;26.52;;;9.82;;
39018;SDS011;24786;51.984;5.872;2023-03-26T12:05:23;20.88;;;10.23;;
39018;SDS011;24786;51.984;5.872;2023-03-26T12:07:54;31.00;;;10.75;;
39018;SDS011;24786;51.984;5.872;2023-03-26T12:10:29;23.33;;;9.38;;
39018;SDS011;24786;51.984;5.872;2023-03-26T12:15:30;24.17;;;8.95;;
39018;SDS011;24786;51.984;5.872;2023-03-26T12:17:57;22.50;;;9.10;;
39018;SDS011;24786;51.984;5.872;2023-03-26T12:20:41;22.45;;;8.25;;
39018;SDS011;24786;51.984;5.872;2023-03-26T12:23:12;18.70;;;8.23;;
39018;SDS011;24786;51.984;5.872;2023-03-26T12:26:10;17.35;;;8.02;;
39018;SDS011;24786;51.984;5.872;2023-03-26T12:28:42;22.55;;;8.65;;
39018;SDS011;24786;51.984;5.872;2023-03-26T12:31:09;19.92;;;7.72;;
39018;SDS011;24786;51.984;5.872;2023-03-26T12:33:41;26.35;;;9.95;;
39018;SDS011;24786;51.984;5.872;2023-03-26T12:36:22;18.95;;;7.22;;
39018;SDS011;24786;51.984;5.872;2023-03-26T12:38:52;23.50;;;7.25;;
39018;SDS011;24786;51.984;5.872;2023-03-26T12:41:18;20.50;;;7.38;;
39018;SDS011;24786;51.984;5.872;2023-03-26T12:43:56;16.27;;;6.60;;
39018;SDS011;24786;51.984;5.872;2023-03-26T12:46:45;16.95;;;6.38;;
39018;SDS011;24786;51.984;5.872;2023-03-26T12:49:11;20.95;;;6.68;;
39018;SDS011;24786;51.984;5.872;2023-03-26T13:16:35;21.48;;;6.85;;
39018;SDS011;24786;51.984;5.872;2023-03-26T13:22:01;15.52;;;4.43;;
39018;SDS011;24786;51.984;5.872;2023-03-26T13:24:49;18.10;;;5.38;;
39018;SDS011;24786;51.984;5.872;2023-03-26T13:27:34;20.15;;;5.05;;
39018;SDS011;24786;51.984;5.872;2023-03-26T13:47:09;16.40;;;4.65;;
39018;SDS011;24786;51.984;5.872;2023-03-26T13:49:52;20.33;;;5.97;;
39018;SDS011;24786;51.984;5.872;2023-03-26T13:57:59;19.23;;;4.22;;
39018;SDS011;24786;51.984;5.872;2023-03-26T14:03:37;16.35;;;3.97;;
39018;SDS011;24786;51.984;5.872;2023-03-26T14:06:56;14.88;;;3.97;;
39018;SDS011;24786;51.984;5.872;2023-03-26T14:09:04;26.80;;;5.00;;
39018;SDS011;24786;51.984;5.872;2023-03-26T14:14:11;20.83;;;4.35;;
39018;SDS011;24786;51.984;5.872;2023-03-26T14:16:45;15.68;;;4.00;;
39018;SDS011;24786;51.984;5.872;2023-03-26T14:33:04;14.70;;;4.13;;
39018;SDS011;24786;51.984;5.872;2023-03-26T14:36:09;7.40;;;3.25;;
39018;SDS011;24786;51.984;5.872;2023-03-26T14:39:15;12.85;;;2.90;;
39018;SDS011;24786;51.984;5.872;2023-03-26T14:41:55;14.02;;;3.17;;
39018;SDS011;24786;51.984;5.872;2023-03-26T14:47:25;5.30;;;2.67;;
39018;SDS011;24786;51.984;5.872;2023-03-26T14:58:22;17.10;;;3.22;;
39018;SDS011;24786;51.984;5.872;2023-03-26T15:01:17;10.10;;;3.25;;
39018;SDS011;24786;51.984;5.872;2023-03-26T15:04:13;14.13;;;2.78;;
39018;SDS011;24786;51.984;5.872;2023-03-26T15:22:01;8.57;;;2.85;;
39018;SDS011;24786;51.984;5.872;2023-03-26T15:46:58;10.73;;;2.88;;
39018;SDS011;24786;51.984;5.872;2023-03-26T15:56:25;10.77;;;2.83;;
39018;SDS011;24786;51.984;5.872;2023-03-26T16:13:39;6.35;;;2.75;;
39018;SDS011;24786;51.984;5.872;2023-03-26T16:16:16;8.00;;;2.50;;
39018;SDS011;24786;51.984;5.872;2023-03-26T16:22:03;9.20;;;2.42;;
39018;SDS011;24786;51.984;5.872;2023-03-26T16:41:02;12.48;;;3.97;;
39018;SDS011;24786;51.984;5.872;2023-03-26T16:43:40;5.53;;;2.33;;
39018;SDS011;24786;51.984;5.872;2023-03-26T16:57:27;13.82;;;3.42;;
39018;SDS011;24786;51.984;5.872;2023-03-26T17:08:36;8.25;;;1.90;;
39018;SDS011;24786;51.984;5.872;2023-03-26T17:14:02;7.72;;;2.15;;
39018;SDS011;24786;51.984;5.872;2023-03-26T17:19:56;13.80;;;2.97;;
39018;SDS011;24786;51.984;5.872;2023-03-26T17:28:46;8.43;;;2.00;;
39018;SDS011;24786;51.984;5.872;2023-03-26T17:31:37;4.90;;;1.90;;
39018;SDS011;24786;51.984;5.872;2023-03-26T17:43:31;13.73;;;2.97;;
39018;SDS011;24786;51.984;5.872;2023-03-26T17:57:52;11.70;;;2.15;;
39018;SDS011;24786;51.984;5.872;2023-03-26T18:16:39;13.20;;;2.83;;
39018;SDS011;24786;51.984;5.872;2023-03-26T18:19:10;5.40;;;1.70;;
39018;SDS011;24786;51.984;5.872;2023-03-26T18:21:46;9.45;;;2.50;;
39018;SDS011;24786;51.984;5.872;2023-03-26T18:24:20;6.50;;;1.85;;
39018;SDS011;24786;51.984;5.872;2023-03-26T18:27:01;8.98;;;1.83;;
39018;SDS011;24786;51.984;5.872;2023-03-26T18:29:32;15.82;;;2.40;;
39018;SDS011;24786;51.984;5.872;2023-03-26T18:32:00;9.35;;;2.33;;
39018;SDS011;24786;51.984;5.872;2023-03-26T18:34:28;6.85;;;1.85;;
39018;SDS011;24786;51.984;5.872;2023-03-26T18:37:11;9.57;;;2.13;;
39018;SDS011;24786;51.984;5.872;2023-03-26T18:39:40;12.25;;;1.77;;
39018;SDS011;24786;51.984;5.872;2023-03-26T18:42:14;8.10;;;1.85;;
39018;SDS011;24786;51.984;5.872;2023-03-26T18:44:44;9.48;;;1.73;;
39018;SDS011;24786;51.984;5.872;2023-03-26T18:47:13;10.60;;;2.45;;
39018;SDS011;24786;51.984;5.872;2023-03-26T18:49:40;7.20;;;2.15;;
39018;SDS011;24786;51.984;5.872;2023-03-26T18:52:15;7.43;;;1.75;;
39018;SDS011;24786;51.984;5.872;2023-03-26T18:54:43;10.90;;;2.45;;
39018;SDS011;24786;51.984;5.872;2023-03-26T18:57:25;8.45;;;2.00;;
39018;SDS011;24786;51.984;5.872;2023-03-26T18:59:53;9.43;;;2.30;;
39018;SDS011;24786;51.984;5.872;2023-03-26T19:02:21;6.57;;;1.90;;
39018;SDS011;24786;51.984;5.872;2023-03-26T19:07:42;7.30;;;1.85;;
39018;SDS011;24786;51.984;5.872;2023-03-26T19:10:14;7.75;;;1.85;;
39018;SDS011;24786;51.984;5.872;2023-03-26T19:13:19;5.32;;;1.55;;
39018;SDS011;24786;51.984;5.872;2023-03-26T19:15:46;9.88;;;1.80;;
39018;SDS011;24786;51.984;5.872;2023-03-26T19:18:18;7.28;;;1.48;;
39018;SDS011;24786;51.984;5.872;2023-03-26T19:20:48;7.28;;;1.60;;
39018;SDS011;24786;51.984;5.872;2023-03-26T19:23:18;7.57;;;2.05;;
39018;SDS011;24786;51.984;5.872;2023-03-26T19:30:01;6.95;;;1.40;;
39018;SDS011;24786;51.984;5.872;2023-03-26T19:32:30;4.88;;;2.00;;
39018;SDS011;24786;51.984;5.872;2023-03-26T19:35:00;6.25;;;1.80;;
39018;SDS011;24786;51.984;5.872;2023-03-26T19:37:29;10.32;;;2.17;;
39018;SDS011;24786;51.984;5.872;2023-03-26T19:40:10;9.02;;;2.03;;
39018;SDS011;24786;51.984;5.872;2023-03-26T19:42:38;14.07;;;1.90;;
39018;SDS011;24786;51.984;5.872;2023-03-26T19:45:08;14.93;;;2.53;;
39018;SDS011;24786;51.984;5.872;2023-03-26T19:47:40;11.13;;;2.33;;
39018;SDS011;24786;51.984;5.872;2023-03-26T19:55:57;8.38;;;1.77;;
39018;SDS011;24786;51.984;5.872;2023-03-26T19:58:28;9.27;;;1.95;;
39018;SDS011;24786;51.984;5.872;2023-03-26T20:00:54;9.00;;;1.85;;
39018;SDS011;24786;51.984;5.872;2023-03-26T20:03:42;11.30;;;2.72;;
39018;SDS011;24786;51.984;5.872;2023-03-26T20:06:12;8.80;;;1.98;;
39018;SDS011;24786;51.984;5.872;2023-03-26T20:08:42;8.10;;;1.67;;
39018;SDS011;24786;51.984;5.872;2023-03-26T20:11:50;10.00;;;2.10;;
39018;SDS011;24786;51.984;5.872;2023-03-26T20:14:01;8.82;;;1.70;;
39018;SDS011;24786;51.984;5.872;2023-03-26T20:16:32;7.90;;;1.80;;
39018;SDS011;24786;51.984;5.872;2023-03-26T20:18:58;6.57;;;1.73;;
39018;SDS011;24786;51.984;5.872;2023-03-26T20:21:26;5.78;;;1.52;;
39018;SDS011;24786;51.984;5.872;2023-03-26T20:23:53;12.60;;;2.15;;
39018;SDS011;24786;51.984;5.872;2023-03-26T20:26:19;6.38;;;1.73;;
39018;SDS011;24786;51.984;5.872;2023-03-26T20:28:47;3.55;;;1.35;;
39018;SDS011;24786;51.984;5.872;2023-03-26T20:31:18;5.97;;;1.70;;
39018;SDS011;24786;51.984;5.872;2023-03-26T20:33:46;5.72;;;1.58;;
39018;SDS011;24786;51.984;5.872;2023-03-26T20:36:16;9.32;;;2.90;;
39018;SDS011;24786;51.984;5.872;2023-03-26T20:38:43;9.25;;;1.73;;
39018;SDS011;24786;51.984;5.872;2023-03-26T20:41:14;12.15;;;2.45;;
39018;SDS011;24786;51.984;5.872;2023-03-26T20:43:46;9.93;;;1.73;;
39018;SDS011;24786;51.984;5.872;2023-03-26T20:46:17;10.93;;;2.58;;
39018;SDS011;24786;51.984;5.872;2023-03-26T20:48:44;3.70;;;1.30;;
39018;SDS011;24786;51.984;5.872;2023-03-26T20:51:10;5.90;;;1.90;;
39018;SDS011;24786;51.984;5.872;2023-03-26T20:53:38;10.32;;;2.38;;
39018;SDS011;24786;51.984;5.872;2023-03-26T20:56:09;9.25;;;2.33;;
39018;SDS011;24786;51.984;5.872;2023-03-26T20:58:40;9.98;;;2.20;;
39018;SDS011;24786;51.984;5.872;2023-03-26T21:01:12;9.23;;;2.25;;
39018;SDS011;24786;51.984;5.872;2023-03-26T21:03:39;9.52;;;2.10;;
39018;SDS011;24786;51.984;5.872;2023-03-26T21:06:06;7.00;;;2.13;;
39018;SDS011;24786;51.984;5.872;2023-03-26T21:08:34;10.70;;;1.63;;
39018;SDS011;24786;51.984;5.872;2023-03-26T21:14:07;9.85;;;1.58;;
39018;SDS011;24786;51.984;5.872;2023-03-26T21:16:38;4.60;;;1.73;;
39018;SDS011;24786;51.984;5.872;2023-03-26T21:19:04;5.15;;;1.58;;
39018;SDS011;24786;51.984;5.872;2023-03-26T21:27:04;9.90;;;1.77;;
39018;SDS011;24786;51.984;5.872;2023-03-26T21:29:38;6.65;;;1.77;;
39018;SDS011;24786;51.984;5.872;2023-03-26T21:32:04;6.38;;;1.40;;
39018;SDS011;24786;51.984;5.872;2023-03-26T21:34:30;7.70;;;2.20;;
39018;SDS011;24786;51.984;5.872;2023-03-26T21:36:58;5.53;;;1.50;;
39018;SDS011;24786;51.984;5.872;2023-03-26T21:39:25;9.13;;;1.90;;
39018;SDS011;24786;51.984;5.872;2023-03-26T21:41:51;6.72;;;1.92;;
39018;SDS011;24786;51.984;5.872;2023-03-26T21:44:17;9.48;;;2.10;;
39018;SDS011;24786;51.984;5.872;2023-03-26T21:46:44;5.75;;;1.40;;
39018;SDS011;24786;51.984;5.872;2023-03-26T21:49:11;6.53;;;1.38;;
39018;SDS011;24786;51.984;5.872;2023-03-26T21:51:39;7.55;;;1.60;;